Latest Weather Observations for Latrobe Valley

IDV60801

Issued at 2:32 pm EDT Friday 20 January 2017 (issued every 30 minutes, with the page automatically refreshed every 10 minutes)

About weather observations | Map of weather stations | Latest weather observations for VIC | Other Formats
Station Details ID: 085280 Name: LATROBE VALLEY AIRPORT Lat: -38.21 Lon: 146.47 Height: 55.7 m
Data from the previous 72 hours. | See also: Recent months at Latrobe Valley
Date/Time
EDT
Temp
°C
App
Temp
°C
Dew
Point
°C
Rel
Hum
%
Delta-T
°C
Wind Press
QNH
hPa
Press
MSL
hPa
Rain since
9am
mm
Dir  Spd
km/h
Gust
km/h
Spd
kts
Gust
kts
20/02:30pm 19.5 10.6 11.8 61 4.3 WSW 50 67 27 36 998.3 998.1 3.4
20/02:24pm 17.7 8.0 11.9 69 3.2 WSW 54 72 29 39 998.4 998.2 3.4
20/02:18pm 17.2 8.6 11.7 70 3.0 WSW 48 72 26 39 998.2 998.0 3.4
20/02:03pm 19.1 13.8 13.1 68 3.4 W 33 52 18 28 998.0 997.8 3.4
20/02:00pm 18.5 13.5 13.4 72 2.9 W 32 43 17 23 998.0 997.8 3.4
20/01:30pm 17.9 13.4 13.8 77 2.3 W 30 41 16 22 997.6 997.4 3.4
20/01:10pm 18.2 11.5 13.3 73 2.8 W 41 59 22 32 997.1 996.9 3.4
20/01:00pm 17.4 9.8 13.5 78 2.2 WSW 46 61 25 33 996.9 996.7 3.4
20/12:32pm 17.8 11.6 13.9 78 2.2 W 39 57 21 31 995.9 995.7 3.4
20/12:30pm 18.1 12.0 14.0 77 2.3 W 39 56 21 30 995.9 995.7 3.4
20/12:00pm 18.3 12.0 14.6 79 2.2 W 41 67 22 36 995.2 995.0 3.4
20/11:38am 19.0 13.3 15.3 79 2.2 W 39 61 21 33 994.4 994.3 3.4
20/11:30am 19.1 14.3 15.6 80 2.1 W 35 48 19 26 994.2 994.1 3.4
20/11:19am 19.5 15.0 16.5 83 1.8 W 35 46 19 25 994.0 993.9 3.4
20/11:00am 18.8 13.5 16.4 86 1.5 W 39 59 21 32 993.6 993.5 3.4
20/10:50am 18.3 13.4 16.3 88 1.2 W 37 57 20 31 993.5 993.4 3.4
20/10:32am 18.3 14.6 17.0 92 0.8 W 32 57 17 31 993.1 993.0 3.4
20/10:30am 18.4 15.2 17.2 93 0.7 WNW 30 48 16 26 993.2 993.1 3.4
20/10:25am 18.3 15.4 17.1 93 0.7 WNW 28 48 15 26 993.1 993.0 3.4
20/10:00am 17.6 17.0 16.6 94 0.6 W 15 28 8 15 993.0 992.9 3.2
20/09:30am 16.9 17.7 15.8 93 0.6 WSW 6 9 3 5 993.3 993.2 2.0
20/09:23am 16.9 17.7 15.8 93 0.6 WSW 6 9 3 5 993.1 993.0 1.6
20/09:04am 16.7 17.8 15.6 93 0.6 ESE 4 9 2 5 992.8 992.7 0.2
20/09:00am 16.7 17.4 15.6 93 0.6 ESE 6 11 3 6 992.8 992.7 8.6
20/08:43am 16.6 16.7 15.5 93 0.6 SE 9 19 5 10 992.4 992.3 8.4
20/08:30am 16.4 15.7 15.3 93 0.6 ENE 13 22 7 12 992.1 992.0 8.4
20/08:16am 16.5 15.0 15.4 93 0.6 ENE 17 26 9 14 991.5 991.3 8.2
20/08:00am 16.3 15.2 15.3 94 0.6 ENE 15 26 8 14 991.9 991.8 8.0
20/07:30am 16.1 14.6 15.3 95 0.5 ENE 17 26 9 14 992.5 992.4 8.0
20/07:02am 16.2 15.5 15.4 95 0.5 NE 13 19 7 10 993.4 993.3 8.0
20/07:00am 16.2 15.5 15.4 95 0.5 NE 13 19 7 10 993.6 993.5 8.0
20/06:30am 16.2 15.1 15.2 94 0.6 NE 15 19 8 10 994.8 994.6 7.2
20/06:00am 16.5 17.2 15.5 94 0.6 NNE 6 7 3 4 996.4 996.2 5.4
20/05:30am 16.6 16.3 15.5 93 0.6 WNW 11 13 6 7 997.5 997.3 2.8
20/05:22am 16.7 16.8 15.6 93 0.6 WNW 9 13 5 7 997.9 997.7 2.2
20/05:00am 16.6 15.6 15.5 93 0.6 W 15 20 8 11 998.7 998.5 1.2
20/04:30am 16.9 16.0 15.8 93 0.6 WNW 15 17 8 9 998.4 998.2 0.8
20/04:00am 17.1 16.6 15.8 92 0.8 WSW 13 19 7 10 999.4 999.2 0.6
20/03:30am 17.2 14.1 15.5 90 1.0 WSW 26 37 14 20 1000.7 1000.5 0.0
20/03:15am 17.1 14.8 15.6 91 0.9 SW 22 30 12 16 1000.2 1000.0 0.0
20/03:00am 16.7 16.7 15.2 91 0.9 W 9 15 5 8 998.2 998.0 0.0
20/02:30am 16.5 16.8 14.9 90 0.9 ENE 7 11 4 6 997.2 997.0 0.0
20/02:00am 16.4 17.1 14.6 89 1.0 ENE 4 7 2 4 998.6 998.4 0.0
20/01:34am 16.5 16.9 14.7 89 1.0 E 6 9 3 5 999.2 999.0 0.0
20/01:30am 16.5 16.8 14.5 88 1.1 E 6 9 3 5 999.2 999.0 0.0
20/01:00am 16.7 16.9 14.7 88 1.2 ENE 7 11 4 6 999.6 999.4 0.0
20/12:30am 16.8 17.0 14.8 88 1.2 NE 7 11 4 6 1000.0 999.8 0.0
20/12:22am 16.8 16.6 14.8 88 1.2 NE 9 13 5 7 1000.3 1000.1 0.0
20/12:00am 17.1 16.5 14.7 86 1.4 ENE 11 17 6 9 1000.5 1000.3 0.0
 
Date/Time
EDT
Temp
°C
App
Temp
°C
Dew
Point
°C
Rel
Hum
%
Delta-T
°C
Wind Press
QNH
hPa
Press
MSL
hPa
Rain since
9am
mm
Dir  Spd
km/h
Gust
km/h
Spd
kts
Gust
kts
19/11:30pm 17.3 16.7 14.6 84 1.6 ENE 11 19 6 10 1001.6 1001.4 0.0
19/11:00pm 17.6 17.0 14.5 82 1.8 ENE 11 19 6 10 1002.8 1002.6 0.0
19/10:30pm 17.9 16.4 14.2 79 2.1 E 15 19 8 10 1003.6 1003.4 0.0
19/10:00pm 18.3 16.4 14.2 77 2.4 E 17 28 9 15 1004.2 1004.0 0.0
19/09:30pm 18.6 16.5 13.7 73 2.8 E 17 26 9 14 1005.2 1005.0 0.0
19/09:00pm 19.1 16.8 13.1 68 3.4 E 17 28 9 15 1006.1 1005.9 0.0
19/08:30pm 19.3 17.1 12.1 63 4.0 E 15 22 8 12 1006.2 1006.0 0.0
19/08:00pm 19.8 16.8 11.8 60 4.5 E 19 26 10 14 1007.0 1006.9 0.0
19/07:30pm 21.1 18.5 12.0 56 5.1 ESE 17 28 9 15 1006.7 1006.5 0.0
19/07:00pm 22.1 19.4 11.8 52 5.8 E 17 28 9 15 1006.6 1006.4 0.0
19/06:30pm 22.3 18.7 11.7 51 6.0 E 22 33 12 18 1006.6 1006.4 0.0
19/06:00pm 22.7 19.3 11.4 49 6.3 E 20 32 11 17 1007.3 1007.2 0.0
19/05:30pm 23.1 19.8 11.5 48 6.5 E 20 30 11 16 1007.6 1007.5 0.0
19/05:00pm 23.8 20.7 11.5 46 6.9 E 19 30 10 16 1007.8 1007.7 0.0
19/04:30pm 23.9 19.8 11.3 45 7.1 E 24 35 13 19 1008.1 1008.0 0.0
19/04:00pm 24.0 20.4 10.7 43 7.4 E 20 32 11 17 1008.7 1008.6 0.0
19/03:30pm 24.0 19.4 9.6 40 7.9 NE 24 33 13 18 1009.2 1009.1 0.0
19/03:00pm 23.9 20.0 9.5 40 7.9 ENE 20 30 11 16 1009.9 1009.8 0.0
19/02:30pm 23.4 18.8 8.3 38 8.0 NE 22 35 12 19 1010.3 1010.2 0.0
19/02:00pm 23.0 18.1 8.3 39 7.8 NE 24 37 13 20 1010.7 1010.6 0.0
19/01:30pm 22.8 18.5 7.8 38 7.9 ENE 20 32 11 17 1011.2 1011.1 0.0
19/01:00pm 22.6 18.0 8.3 40 7.6 ENE 22 35 12 19 1011.7 1011.6 0.0
19/12:30pm 21.2 16.7 8.5 44 6.7 NE 22 37 12 20 1012.1 1012.0 0.0
19/12:00pm 20.4 15.5 7.1 42 6.8 ENE 22 37 12 20 1012.7 1012.6 0.0
19/11:30am 20.7 15.8 8.4 45 6.4 NE 24 37 13 20 1012.9 1012.8 0.0
19/11:00am 19.0 14.4 6.5 44 6.2 ENE 20 33 11 18 1013.4 1013.2 0.0
19/10:30am 18.4 13.7 7.8 50 5.4 ENE 22 33 12 18 1013.9 1013.7 0.0
19/10:00am 17.6 13.7 8.7 56 4.6 ENE 19 26 10 14 1014.2 1014.0 0.0
19/09:30am 16.7 13.3 9.1 61 3.9 ENE 17 24 9 13 1014.4 1014.2 0.0
19/09:00am 15.3 12.9 8.5 64 3.4 E 11 17 6 9 1014.9 1014.7 0.0
19/08:30am 13.3 10.8 8.0 70 2.6 E 11 17 6 9 1015.2 1015.0 0.0
19/08:00am 11.3 9.5 8.0 80 1.6 ESE 7 9 4 5 1015.3 1015.1 0.0
19/07:30am 8.5 7.8 7.1 91 0.7 CALM 0 0 0 0 1015.5 1015.3 0.0
19/07:00am 6.4 5.3 5.2 92 0.5 CALM 0 0 0 0 1015.3 1015.1 0.0
19/06:30am 5.2 3.9 4.0 92 0.5 CALM 0 0 0 0 1015.2 1015.0 0.0
19/06:00am 5.4 4.1 4.2 92 0.5 CALM 0 0 0 0 1015.3 1015.1 0.0
19/05:30am 5.3 3.9 3.8 90 0.6 CALM 0 0 0 0 1015.1 1014.9 0.0
19/05:00am 4.9 3.4 3.1 88 0.7 CALM 0 0 0 0 1015.1 1014.9 0.0
19/04:30am 6.9 5.8 5.2 89 0.8 CALM 0 0 0 0 1015.1 1014.9 0.0
19/04:00am 6.5 5.3 4.8 89 0.7 CALM 0 0 0 0 1015.3 1015.1 0.0
19/03:30am 6.5 5.3 4.8 89 0.7 CALM 0 0 0 0 1015.6 1015.4 0.0
19/03:00am 7.4 6.4 5.4 87 0.9 CALM 0 0 0 0 1015.8 1015.6 0.0
19/02:30am 7.6 5.8 5.6 87 0.9 NE 4 6 2 3 1016.1 1015.9 0.0
19/02:00am 9.0 7.8 6.3 83 1.2 SSW 2 7 1 4 1016.4 1016.2 0.0
19/01:30am 9.5 7.4 6.6 82 1.4 S 7 9 4 5 1016.5 1016.3 0.0
19/01:00am 9.9 8.0 6.6 80 1.5 S 6 7 3 4 1016.8 1016.6 0.0
19/12:30am 10.3 7.9 6.8 79 1.7 W 9 9 5 5 1017.1 1016.9 0.0
19/12:00am 10.2 7.6 6.2 76 1.9 SW 9 13 5 7 1017.5 1017.3 0.0
 
Date/Time
EDT
Temp
°C
App
Temp
°C
Dew
Point
°C
Rel
Hum
%
Delta-T
°C
Wind Press
QNH
hPa
Press
MSL
hPa
Rain since
9am
mm
Dir  Spd
km/h
Gust
km/h
Spd
kts
Gust
kts
18/11:30pm 11.0 8.2 6.9 76 2.0 W 11 13 6 7 1017.5 1017.3 0.0
18/11:00pm 12.0 8.9 7.1 72 2.4 W 13 17 7 9 1017.3 1017.1 0.0
18/10:30pm 12.6 9.0 6.9 68 2.7 WSW 15 20 8 11 1017.1 1016.9 0.0
18/10:00pm 13.2 9.3 7.0 66 3.0 SW 17 22 9 12 1017.1 1016.9 0.0
18/09:30pm 14.3 9.9 7.6 64 3.3 SW 20 26 11 14 1016.8 1016.6 0.0
18/09:00pm 14.7 10.4 7.0 60 3.8 WSW 19 24 10 13 1016.7 1016.5 0.0
18/08:30pm 15.7 11.1 6.7 55 4.4 WSW 20 28 11 15 1016.1 1015.9 0.0
18/08:00pm 17.0 12.3 5.9 48 5.4 SW 20 30 11 16 1016.0 1015.8 0.0
18/07:30pm 18.1 12.9 5.3 43 6.2 SW 22 28 12 15 1015.7 1015.5 0.0
18/07:00pm 18.9 13.2 4.7 39 6.8 SW 24 32 13 17 1015.5 1015.3 0.0
18/06:30pm 19.8 14.3 5.8 40 6.9 SW 24 32 13 17 1015.2 1015.0 0.0
18/06:00pm 20.1 14.0 2.5 31 8.2 SW 24 32 13 17 1015.2 1015.0 0.0
18/05:30pm 20.0 14.0 3.3 33 7.9 SSW 24 35 13 19 1015.1 1014.9 0.0
18/05:00pm 20.8 14.9 5.6 37 7.6 SW 26 37 14 20 1014.8 1014.6 0.0
18/04:30pm 21.1 15.5 7.0 40 7.2 SSW 26 37 14 20 1014.8 1014.6 0.0
18/04:00pm 21.3 14.4 6.4 38 7.5 SW 32 39 17 21 1014.6 1014.4 0.0
18/03:30pm 20.9 14.8 6.4 39 7.3 SW 28 37 15 20 1014.7 1014.5 0.0
18/03:00pm 20.8 14.9 7.4 42 6.9 SW 28 39 15 21 1014.7 1014.5 0.0
18/02:30pm 22.2 15.2 6.8 37 7.9 WSW 33 44 18 24 1014.7 1014.5 0.0
18/02:02pm 21.3 14.5 6.8 39 7.4 WSW 32 50 17 27 1014.5 1014.3 0.0
18/02:00pm 21.6 14.8 6.7 38 7.6 WSW 32 44 17 24 1014.5 1014.3 0.0
18/01:30pm 20.6 14.3 7.6 43 6.7 WSW 30 41 16 22 1014.4 1014.2 0.0
18/01:00pm 22.1 15.4 8.2 41 7.3 SW 33 48 18 26 1014.1 1013.9 0.0
18/12:30pm 21.1 14.9 10.0 49 6.0 WSW 33 44 18 24 1013.9 1013.7 0.0
18/12:00pm 20.9 14.4 8.2 44 6.6 WSW 32 39 17 21 1013.6 1013.4 0.0
18/11:30am 20.7 14.0 7.3 42 6.9 WSW 32 43 17 23 1013.3 1013.1 0.0
18/11:00am 20.5 14.0 8.2 45 6.4 WSW 32 41 17 22 1013.0 1012.9 0.0
18/10:30am 19.5 12.9 7.6 46 6.1 WSW 32 43 17 23 1012.8 1012.7 0.0
18/10:00am 18.0 11.6 8.6 54 4.9 WSW 32 41 17 22 1012.5 1012.4 0.0
18/09:30am 17.6 12.2 9.5 59 4.3 WSW 28 35 15 19 1012.5 1012.4 0.0
18/09:00am 16.5 10.4 9.9 65 3.5 WSW 32 37 17 20 1012.4 1012.3 0.0
18/08:30am 16.3 11.6 10.8 70 2.9 WSW 26 41 14 22 1012.0 1011.9 0.0
18/08:00am 16.2 10.4 10.9 71 2.8 WSW 32 44 17 24 1011.3 1011.2 0.0
18/07:30am 15.7 11.0 11.9 78 2.1 SW 28 37 15 20 1010.3 1010.2 0.0
18/07:10am 16.5 11.7 12.8 79 2.1 SW 30 48 16 26 1009.6 1009.5 0.0
18/07:00am 16.4 10.9 12.6 78 2.1 SW 33 44 18 24 1009.2 1009.1 0.0
18/06:50am 16.7 11.5 12.8 78 2.2 WSW 32 44 17 24 1009.0 1008.9 0.0
18/06:30am 16.8 11.5 12.5 76 2.4 WSW 32 39 17 21 1008.5 1008.4 0.0
18/06:19am 17.0 11.6 12.9 77 2.3 WSW 33 44 18 24 1008.7 1008.6 0.0
18/06:00am 17.4 12.5 13.7 79 2.1 WSW 32 44 17 24 1008.3 1008.2 0.0
18/05:49am 17.5 12.1 13.8 79 2.1 WSW 35 48 19 26 1008.0 1007.9 0.0
18/05:30am 18.5 13.8 14.2 76 2.5 SW 32 44 17 24 1007.5 1007.4 0.0
18/05:00am 19.2 16.1 13.4 69 3.3 WSW 22 30 12 16 1006.7 1006.5 0.0
18/04:30am 18.9 17.9 12.4 66 3.6 WSW 9 15 5 8 1006.8 1006.6 0.0
18/04:00am 19.7 16.8 12.2 62 4.2 WSW 19 22 10 12 1007.9 1007.8 0.0
18/03:30am 20.5 16.6 10.9 54 5.3 WSW 22 26 12 14 1008.6 1008.5 0.0
18/03:00am 21.0 17.4 10.5 51 5.7 WSW 20 26 11 14 1008.2 1008.1 0.0
18/02:30am 21.9 17.8 10.1 47 6.4 WSW 22 32 12 17 1008.5 1008.4 0.0
18/02:00am 21.9 18.5 10.4 48 6.3 W 19 26 10 14 1008.4 1008.3 0.0
18/01:30am 22.0 18.9 10.2 47 6.4 WNW 17 22 9 12 1008.6 1008.5 0.0
18/01:00am 22.2 19.4 10.0 46 6.7 WSW 15 19 8 10 1009.1 1009.0 0.0
18/12:30am 22.4 19.7 10.2 46 6.7 W 15 19 8 10 1009.3 1009.2 0.0
18/12:00am 23.2 19.5 9.6 42 7.4 WSW 19 26 10 14 1009.5 1009.4 0.0
 
Date/Time
EDT
Temp
°C
App
Temp
°C
Dew
Point
°C
Rel
Hum
%
Delta-T
°C
Wind Press
QNH
hPa
Press
MSL
hPa
Rain since
9am
mm
Dir  Spd
km/h
Gust
km/h
Spd
kts
Gust
kts
17/11:30pm 23.8 19.9 9.4 40 7.8 W 20 24 11 13 1009.5 1009.4 0.0
17/11:00pm 24.9 21.7 10.0 39 8.2 SW 17 22 9 12 1008.9 1008.8 0.0
17/10:30pm 25.8 21.6 9.6 36 8.9 SW 22 28 12 15 1008.6 1008.5 0.0
17/10:00pm 27.3 23.9 10.5 35 9.5 SSW 19 28 10 15 1008.2 1008.1 0.0
17/09:30pm 26.5 25.6 12.5 41 8.1 SSW 9 15 5 8 1007.2 1007.1 0.0
17/09:00pm 27.2 25.5 12.4 40 8.6 NE 13 20 7 11 1006.3 1006.1 0.0
17/08:30pm 28.1 26.4 11.2 35 9.7 NE 11 19 6 10 1005.8 1005.6 0.0
17/08:00pm 29.3 28.6 9.9 30 11.0 ENE 4 13 2 7 1005.4 1005.2 0.0
17/07:30pm 29.5 26.1 9.1 28 11.4 SW 17 22 9 12 1004.4 1004.2 0.0
17/07:00pm 30.3 25.6 9.2 27 11.9 SW 24 32 13 17 1004.5 1004.3 0.0
17/06:30pm 32.6 27.9 9.4 24 13.2 SW 24 32 13 17 1004.7 1004.5 0.0
17/06:00pm 33.2 28.1 9.3 23 13.6 SW 26 33 14 18 1004.9 1004.7 0.0
17/05:30pm 34.8 31.1 9.3 21 14.6 W 19 28 10 15 1005.2 1005.0 0.0
17/05:00pm 34.3 30.1 8.1 20 14.7 WSW 20 30 11 16 1005.4 1005.2 0.0
17/04:30pm 33.7 28.5 9.0 22 14.0 WSW 26 37 14 20 1005.6 1005.4 0.0
17/04:00pm 34.0 27.4 7.9 20 14.6 SW 32 39 17 21 1005.9 1005.7 0.0
17/03:30pm 34.1 27.4 8.0 20 14.6 SW 33 46 18 25 1006.0 1005.8 0.0
17/03:00pm 34.6 26.8 6.8 18 15.3 SW 37 46 20 25 1006.2 1006.0 0.0

Other Formats:

Comma delimited format used in spreadsheet applications
http://www.bom.gov.au/fwo/IDV60801/IDV60801.94891.axf

JavaScript Object Notation format (JSON) in row-major order
http://www.bom.gov.au/fwo/IDV60801/IDV60801.94891.json